createdAt,value
2019-03-05T00:01:31.211Z,1.92
2019-03-05T00:04:00.542Z,1.95
2019-03-05T00:06:31.074Z,1.70
2019-03-05T00:09:00.142Z,1.80
2019-03-05T00:11:29.226Z,1.70
2019-03-05T00:13:58.570Z,1.80
2019-03-05T00:16:27.654Z,1.98
2019-03-05T00:18:56.739Z,1.75
2019-03-05T00:21:25.826Z,2.00
2019-03-05T00:23:57.166Z,2.08
2019-03-05T00:26:31.934Z,1.80
2019-03-05T00:29:10.286Z,1.60
2019-03-05T00:31:47.825Z,1.70
2019-03-05T00:34:29.086Z,1.70
2019-03-05T00:37:01.420Z,1.60
2019-03-05T00:39:45.842Z,1.40
2019-03-05T00:42:52.950Z,1.60
2019-03-05T00:45:27.957Z,1.27
2019-03-05T00:48:11.322Z,1.02
2019-03-05T00:51:05.335Z,1.10
2019-03-05T00:53:52.494Z,0.93
2019-03-05T00:56:24.838Z,0.90
2019-03-05T00:58:57.171Z,1.00
2019-03-05T01:01:57.290Z,1.10
2019-03-05T01:04:32.442Z,1.12
2019-03-05T01:07:01.526Z,1.47
2019-03-05T01:09:30.771Z,0.95
2019-03-05T01:11:59.856Z,1.12
2019-03-05T01:14:28.928Z,1.15
2019-03-05T01:16:58.002Z,1.12
2019-03-05T01:19:27.102Z,1.50
2019-03-05T01:21:56.175Z,1.42
2019-03-05T01:24:25.560Z,1.60
2019-03-05T01:26:54.672Z,1.60
2019-03-05T01:29:23.747Z,2.17
2019-03-05T01:31:57.627Z,1.62
2019-03-05T01:34:40.619Z,1.90
2019-03-05T01:37:09.686Z,2.08
2019-03-05T01:39:46.815Z,2.00
2019-03-05T01:42:15.892Z,1.90
2019-03-05T01:44:44.969Z,1.90
2019-03-05T01:47:14.042Z,1.87
2019-03-05T01:49:43.146Z,2.22
2019-03-05T01:52:12.218Z,2.27
2019-03-05T01:54:41.295Z,2.00
2019-03-05T01:57:10.378Z,2.12
2019-03-05T01:59:40.542Z,2.33
2019-03-05T02:02:09.610Z,2.00
2019-03-05T02:04:38.758Z,2.40
2019-03-05T02:07:07.844Z,1.92
2019-03-05T02:09:36.913Z,2.08
2019-03-05T02:12:06.306Z,2.12
2019-03-05T02:14:35.370Z,2.12
2019-03-05T02:17:04.454Z,2.10
2019-03-05T02:19:38.043Z,1.95
2019-03-05T02:22:13.474Z,2.33
2019-03-05T02:25:00.656Z,2.45
2019-03-05T02:27:53.586Z,2.42
2019-03-05T02:30:37.936Z,2.20
2019-03-05T02:33:21.931Z,2.35
2019-03-05T02:36:09.131Z,2.37
2019-03-05T02:38:41.480Z,2.55
2019-03-05T02:41:26.580Z,2.70
2019-03-05T02:43:58.987Z,3.02
2019-03-05T02:46:46.811Z,2.52
2019-03-05T02:49:46.388Z,2.65
2019-03-05T02:52:33.611Z,2.55
2019-03-05T02:55:29.469Z,3.25
2019-03-05T02:57:57.655Z,2.80
2019-03-05T03:00:34.450Z,2.77
2019-03-05T03:03:05.167Z,2.70
2019-03-05T03:05:35.893Z,2.58
2019-03-05T03:08:04.981Z,3.10
2019-03-05T03:10:34.067Z,2.47
2019-03-05T03:13:03.138Z,3.30
2019-03-05T03:15:32.225Z,3.00
2019-03-05T03:18:01.307Z,3.22
2019-03-05T03:20:30.379Z,2.80
2019-03-05T03:22:59.451Z,2.75
2019-03-05T03:25:28.541Z,2.87
2019-03-05T03:27:57.622Z,2.90
2019-03-05T03:30:26.699Z,2.90
2019-03-05T03:32:55.817Z,2.72
2019-03-05T03:35:24.879Z,3.27
2019-03-05T03:37:53.955Z,2.77
2019-03-05T03:40:23.350Z,3.20
2019-03-05T03:42:52.665Z,2.67
2019-03-05T03:45:22.151Z,3.40
2019-03-05T03:47:51.221Z,3.20
2019-03-05T03:50:20.300Z,3.52
2019-03-05T03:52:50.343Z,3.20
2019-03-05T03:55:19.431Z,3.35
2019-03-05T03:57:48.491Z,3.10
2019-03-05T04:00:19.319Z,2.80
2019-03-05T04:02:48.394Z,2.98
2019-03-05T04:05:17.554Z,3.27
2019-03-05T04:07:46.634Z,2.40
2019-03-05T04:10:16.390Z,2.35
2019-03-05T04:12:45.472Z,2.10
2019-03-05T04:15:17.039Z,2.58
2019-03-05T04:17:46.132Z,2.35
2019-03-05T04:20:18.413Z,2.15
2019-03-05T04:22:47.816Z,2.40
2019-03-05T04:25:16.891Z,2.02
2019-03-05T04:27:45.967Z,2.67
2019-03-05T04:30:15.039Z,2.20
2019-03-05T04:32:44.410Z,2.33
2019-03-05T04:35:13.650Z,2.60
2019-03-05T04:37:42.816Z,2.17
2019-03-05T04:40:12.162Z,2.40
2019-03-05T04:42:41.237Z,2.75
2019-03-05T04:45:41.316Z,3.17
2019-03-05T04:48:10.382Z,2.70
2019-03-05T04:50:43.851Z,2.92
2019-03-05T04:53:12.930Z,3.08
2019-03-05T04:55:42.324Z,2.87
2019-03-05T04:58:11.403Z,3.25
2019-03-05T05:00:40.477Z,2.95
2019-03-05T05:03:09.550Z,3.08
2019-03-05T05:05:38.640Z,3.17
2019-03-05T05:08:08.782Z,3.50
2019-03-05T05:10:37.879Z,3.15
2019-03-05T05:13:06.954Z,3.05
2019-03-05T05:15:36.433Z,2.90
2019-03-05T05:18:05.510Z,3.15
2019-03-05T05:20:34.586Z,3.27
2019-03-05T05:23:03.927Z,2.65
2019-03-05T05:25:33.054Z,2.27
2019-03-05T05:28:02.150Z,2.70
2019-03-05T05:30:38.450Z,2.62
2019-03-05T05:33:08.162Z,3.15
2019-03-05T05:35:37.238Z,3.00
2019-03-05T05:38:06.311Z,3.05
2019-03-05T05:40:37.125Z,3.10
2019-03-05T05:43:12.391Z,2.95
2019-03-05T05:45:49.430Z,3.67
2019-03-05T05:48:18.574Z,3.00
2019-03-05T05:50:47.649Z,2.95
2019-03-05T05:53:16.728Z,3.62
2019-03-05T05:55:45.806Z,2.95
2019-03-05T05:58:14.946Z,3.05
2019-03-05T06:00:45.677Z,3.27
2019-03-05T06:03:14.754Z,3.02
2019-03-05T06:05:43.829Z,2.90
2019-03-05T06:08:13.878Z,3.58
2019-03-05T06:10:42.950Z,3.67
2019-03-05T06:13:12.026Z,3.35
2019-03-05T06:15:41.103Z,3.58
2019-03-05T06:18:10.182Z,3.65
2019-03-05T06:20:39.258Z,3.42
2019-03-05T06:23:08.671Z,2.75
2019-03-05T06:25:37.753Z,3.62
2019-03-05T06:28:07.582Z,3.20
2019-03-05T06:30:41.482Z,2.87
2019-03-05T06:33:10.564Z,2.70
2019-03-05T06:35:39.634Z,3.10
2019-03-05T06:38:08.987Z,3.17
2019-03-05T06:40:38.062Z,3.30
2019-03-05T06:43:07.151Z,2.70
2019-03-05T06:45:36.223Z,3.40
2019-03-05T06:48:05.579Z,2.50
2019-03-05T06:50:34.721Z,2.98
2019-03-05T06:53:03.827Z,2.95
2019-03-05T06:55:32.966Z,2.65
2019-03-05T06:58:02.042Z,2.55
2019-03-05T07:00:34.188Z,2.65
2019-03-05T07:03:05.278Z,2.35
2019-03-05T07:06:11.018Z,2.30
2019-03-05T07:08:52.362Z,2.67
2019-03-05T07:11:36.880Z,2.40
2019-03-05T07:14:24.310Z,2.50
2019-03-05T07:17:11.837Z,2.10
2019-03-05T07:19:58.221Z,2.30
2019-03-05T07:22:29.573Z,2.20
2019-03-05T07:24:58.656Z,2.15
2019-03-05T07:27:28.670Z,2.27
2019-03-05T07:30:01.302Z,2.67
2019-03-05T07:32:31.990Z,2.70
2019-03-05T07:35:01.074Z,2.40
2019-03-05T07:37:30.141Z,2.05
2019-03-05T07:39:59.221Z,1.90
2019-03-05T07:42:28.293Z,2.00
2019-03-05T07:44:57.363Z,2.20
2019-03-05T07:47:26.440Z,1.70
2019-03-05T07:49:55.530Z,1.65
2019-03-05T07:52:24.611Z,2.10
2019-03-05T07:54:53.686Z,1.90
2019-03-05T07:57:22.760Z,2.12
2019-03-05T07:59:51.842Z,1.95
2019-03-05T08:02:21.180Z,1.85
2019-03-05T08:04:50.252Z,1.57
2019-03-05T08:07:19.323Z,2.00
2019-03-05T08:09:48.403Z,1.90
2019-03-05T08:12:20.971Z,2.00
2019-03-05T08:15:11.187Z,2.02
2019-03-05T08:17:40.266Z,1.90
2019-03-05T08:20:11.586Z,1.75
2019-03-05T08:22:40.926Z,2.00
2019-03-05T08:25:11.651Z,1.75
2019-03-05T08:27:41.026Z,2.00
2019-03-05T08:30:17.419Z,1.70
2019-03-05T08:32:46.529Z,1.35
2019-03-05T08:35:15.606Z,1.65
2019-03-05T08:37:44.678Z,1.30
2019-03-05T08:40:14.917Z,1.60
2019-03-05T08:42:43.993Z,1.75
2019-03-05T08:45:14.636Z,1.70
2019-03-05T08:47:43.713Z,2.30
2019-03-05T08:50:14.711Z,1.72
2019-03-05T08:52:44.229Z,1.40
2019-03-05T08:55:13.330Z,1.80
2019-03-05T08:57:44.052Z,1.85
2019-03-05T09:00:16.398Z,1.57
2019-03-05T09:02:48.819Z,1.55
2019-03-05T09:05:17.442Z,1.80
2019-03-05T09:07:46.519Z,1.70
2019-03-05T09:10:18.094Z,1.45
2019-03-05T09:12:47.751Z,1.75
2019-03-05T09:15:18.722Z,1.70
2019-03-05T09:17:47.866Z,1.70
2019-03-05T09:20:18.279Z,2.30
2019-03-05T09:22:47.683Z,1.50
2019-03-05T09:25:18.130Z,1.70
2019-03-05T09:27:47.268Z,1.87
2019-03-05T09:30:18.587Z,1.90
2019-03-05T09:32:48.166Z,1.90
2019-03-05T09:35:17.589Z,1.60
2019-03-05T09:37:46.770Z,1.77
2019-03-05T09:40:33.086Z,1.80
2019-03-05T09:43:02.175Z,1.95
2019-03-05T09:45:31.414Z,1.98
2019-03-05T09:48:00.495Z,2.05
2019-03-05T09:50:32.198Z,1.85
2019-03-05T09:53:01.522Z,2.35
2019-03-05T09:55:36.691Z,2.22
2019-03-05T09:58:08.345Z,2.15
2019-03-05T10:00:36.987Z,2.15
2019-03-05T10:03:06.999Z,2.37
2019-03-05T10:05:36.323Z,2.47
2019-03-05T10:08:07.115Z,1.92
2019-03-05T10:10:36.269Z,2.27
2019-03-05T10:13:05.339Z,2.65
2019-03-05T10:15:34.483Z,2.40
2019-03-05T10:18:12.404Z,2.75
2019-03-05T10:20:35.251Z,2.40
2019-03-05T10:23:04.915Z,2.22
2019-03-05T10:25:33.997Z,2.20
2019-03-05T10:28:03.349Z,2.47
2019-03-05T10:30:36.390Z,1.87
2019-03-05T10:33:08.171Z,1.75
2019-03-05T10:35:37.567Z,2.00
2019-03-05T10:38:07.578Z,1.82
2019-03-05T10:40:43.910Z,1.47
2019-03-05T10:43:15.450Z,1.50
2019-03-05T10:45:48.890Z,1.37
2019-03-05T10:48:23.242Z,1.50
2019-03-05T10:50:52.630Z,1.10
2019-03-05T10:53:21.938Z,1.52
2019-03-05T10:55:51.662Z,1.10
2019-03-05T10:58:20.807Z,1.50
2019-03-05T11:00:56.855Z,1.00
2019-03-05T11:03:30.162Z,1.10
2019-03-05T11:05:59.255Z,1.20
2019-03-05T11:08:28.681Z,1.37
2019-03-05T11:10:57.751Z,1.37
2019-03-05T11:13:26.822Z,1.40
2019-03-05T11:16:04.631Z,1.50
2019-03-05T11:18:33.779Z,1.50
2019-03-05T11:21:03.025Z,1.45
2019-03-05T11:23:33.291Z,1.35
2019-03-05T11:26:02.354Z,1.62
2019-03-05T11:28:31.426Z,1.37
2019-03-05T11:31:00.507Z,1.52
2019-03-05T11:33:29.582Z,1.40
2019-03-05T11:35:58.670Z,1.50
2019-03-05T11:38:27.742Z,1.47
2019-03-05T11:40:56.822Z,1.60
2019-03-05T11:43:25.903Z,1.50
2019-03-05T11:45:54.975Z,1.72
2019-03-05T11:48:24.049Z,1.42
2019-03-05T11:50:53.143Z,1.60
2019-03-05T11:53:22.211Z,1.80
2019-03-05T11:55:51.281Z,1.62
2019-03-05T11:58:20.362Z,1.80
2019-03-05T12:01:06.359Z,1.22
2019-03-05T12:03:35.605Z,1.40
2019-03-05T12:06:04.681Z,1.30
2019-03-05T12:08:33.765Z,1.25
2019-03-05T12:11:02.831Z,1.50
2019-03-05T12:13:31.910Z,1.05
2019-03-05T12:16:00.995Z,1.27
2019-03-05T12:18:30.546Z,1.00
2019-03-05T12:20:59.634Z,1.15
2019-03-05T12:23:28.702Z,1.20
2019-03-05T12:25:57.775Z,1.50
2019-03-05T12:28:26.854Z,1.30
2019-03-05T12:30:55.934Z,1.40
2019-03-05T12:33:25.014Z,1.20
2019-03-05T12:35:54.088Z,1.12
2019-03-05T12:38:23.161Z,1.47
2019-03-05T12:40:52.268Z,1.00
2019-03-05T12:43:22.404Z,1.30
2019-03-05T12:45:51.473Z,1.00
2019-03-05T12:48:20.869Z,1.27
2019-03-05T12:50:49.922Z,1.10
2019-03-05T12:53:18.989Z,0.93
2019-03-05T12:55:48.059Z,1.00
2019-03-05T12:58:17.435Z,1.47
2019-03-05T13:00:47.582Z,0.90
2019-03-05T13:03:16.655Z,1.00
2019-03-05T13:05:45.738Z,1.10
2019-03-05T13:08:14.807Z,1.00
2019-03-05T13:10:45.250Z,1.12
2019-03-05T13:13:15.388Z,0.80
2019-03-05T13:15:44.722Z,1.10
2019-03-05T13:18:14.382Z,1.05
2019-03-05T13:20:43.562Z,1.10
2019-03-05T13:23:12.634Z,1.10
2019-03-05T13:25:41.706Z,1.30
2019-03-05T13:28:10.954Z,1.07
2019-03-05T13:30:40.514Z,0.75
2019-03-05T13:33:09.723Z,1.00
2019-03-05T13:35:38.790Z,0.90
2019-03-05T13:38:10.475Z,1.00
2019-03-05T13:40:40.729Z,1.40
2019-03-05T13:43:10.120Z,0.95
2019-03-05T13:45:42.803Z,1.10
2019-03-05T13:48:23.251Z,0.90
2019-03-05T13:51:09.707Z,0.75
2019-03-05T13:54:05.800Z,0.80
2019-03-05T13:56:59.730Z,0.80
2019-03-05T13:59:45.198Z,0.90
2019-03-05T14:02:20.607Z,1.17
2019-03-05T14:07:53.927Z,0.60
2019-03-05T14:10:22.989Z,1.00
2019-03-05T14:12:52.062Z,0.90
2019-03-05T14:15:21.515Z,0.95
2019-03-05T14:17:50.626Z,0.88
2019-03-05T14:20:19.676Z,0.90
2019-03-05T14:22:49.092Z,1.15
2019-03-05T14:25:18.248Z,1.10
2019-03-05T14:27:47.315Z,0.60
2019-03-05T14:30:21.342Z,0.40
2019-03-05T14:32:50.535Z,0.57
2019-03-05T14:35:21.422Z,0.50
2019-03-05T14:37:50.520Z,0.60
2019-03-05T14:40:27.992Z,0.80
2019-03-05T14:42:57.152Z,0.57
2019-03-05T14:45:28.395Z,0.55
2019-03-05T14:47:58.886Z,1.00
2019-03-05T14:50:27.981Z,0.30
2019-03-05T14:52:57.298Z,0.40
2019-03-05T14:55:26.705Z,0.53
2019-03-05T14:57:55.780Z,0.50
2019-03-05T15:00:25.043Z,0.40
2019-03-05T15:02:54.137Z,0.88
2019-03-05T15:05:24.759Z,2.87
2019-03-05T15:07:53.873Z,2.60
2019-03-05T15:10:22.974Z,0.90
2019-03-05T15:12:52.028Z,0.80
2019-03-05T15:15:27.151Z,0.50
2019-03-05T15:17:56.232Z,0.50
2019-03-05T15:20:25.316Z,0.80
2019-03-05T15:22:54.675Z,0.93
2019-03-05T15:25:23.751Z,0.60
2019-03-05T15:27:53.184Z,0.88
2019-03-05T15:30:28.936Z,0.80
2019-03-05T15:32:58.053Z,0.70
2019-03-05T15:35:27.399Z,0.90
2019-03-05T15:37:56.537Z,1.32
2019-03-05T15:40:26.688Z,1.00
2019-03-05T15:42:55.772Z,0.70
2019-03-05T15:45:24.890Z,0.80
2019-03-05T15:47:54.023Z,0.98
2019-03-05T15:50:26.176Z,0.47
2019-03-05T15:52:55.269Z,0.60
2019-03-05T15:55:25.295Z,0.60
2019-03-05T15:57:54.379Z,0.60
2019-03-05T16:00:31.662Z,0.50
2019-03-05T16:03:01.111Z,0.45
2019-03-05T16:05:30.359Z,0.55
2019-03-05T16:08:01.222Z,0.45
2019-03-05T16:10:30.574Z,1.90
2019-03-05T16:12:59.658Z,1.65
2019-03-05T16:15:29.022Z,0.60
2019-03-05T16:18:01.427Z,0.65
2019-03-05T16:20:29.922Z,0.53
2019-03-05T16:22:59.129Z,0.60
2019-03-05T16:25:28.203Z,0.50
2019-03-05T16:27:57.282Z,0.70
2019-03-05T16:30:45.674Z,0.65
2019-03-05T16:33:36.928Z,0.80
2019-03-05T16:36:17.510Z,1.40
2019-03-05T16:38:51.192Z,1.70
2019-03-05T16:41:24.546Z,9.45
2019-03-05T16:44:04.040Z,0.80
2019-03-05T16:46:51.006Z,1.00
2019-03-05T16:49:27.778Z,0.65
2019-03-05T16:52:10.499Z,0.50
2019-03-05T16:54:43.880Z,0.88
2019-03-05T16:57:20.555Z,1.20
2019-03-05T16:59:53.221Z,1.32
2019-03-05T17:02:40.147Z,1.35
2019-03-05T17:05:22.723Z,1.20
2019-03-05T17:08:09.913Z,1.20
2019-03-05T17:10:43.535Z,1.17
2019-03-05T17:13:12.686Z,0.62
2019-03-05T17:15:41.943Z,9.58
2019-03-05T17:18:11.087Z,0.90
2019-03-05T17:20:40.414Z,2.22
2019-03-05T17:23:10.046Z,11.25
2019-03-05T17:25:39.310Z,2.20
2019-03-05T17:28:08.462Z,1.27
2019-03-05T17:30:37.697Z,1.07
2019-03-05T17:33:06.959Z,1.10
2019-03-05T17:35:37.198Z,1.62
2019-03-05T17:38:06.646Z,1.35
2019-03-05T17:40:35.899Z,1.40
2019-03-05T17:43:06.599Z,1.40
2019-03-05T17:45:35.747Z,1.60
2019-03-05T17:48:04.823Z,1.80
2019-03-05T17:50:34.162Z,1.70
2019-03-05T17:53:03.322Z,1.42
2019-03-05T17:55:33.866Z,0.93
2019-03-05T17:58:03.190Z,1.20
2019-03-05T18:00:36.599Z,2.00
2019-03-05T18:03:06.338Z,3.15
2019-03-05T18:05:35.486Z,2.62
2019-03-05T18:08:04.562Z,1.90
2019-03-05T18:10:33.810Z,1.80
2019-03-05T18:13:03.275Z,1.50
2019-03-05T18:15:32.534Z,1.10
2019-03-05T18:18:01.779Z,1.40
2019-03-05T18:20:32.506Z,1.40
2019-03-05T18:23:01.661Z,1.70
2019-03-05T18:25:32.646Z,1.90
2019-03-05T18:28:01.994Z,2.33
2019-03-05T18:30:31.915Z,1.62
2019-03-05T18:33:00.990Z,1.85
2019-03-05T18:35:30.230Z,2.55
2019-03-05T18:37:59.318Z,2.20
2019-03-05T18:40:28.390Z,2.17
2019-03-05T18:42:57.534Z,2.17
2019-03-05T18:45:28.554Z,2.40
2019-03-05T18:47:57.631Z,2.10
2019-03-05T18:50:26.810Z,2.27
2019-03-05T18:53:11.743Z,2.30
2019-03-05T18:55:40.828Z,2.65
2019-03-05T18:58:09.899Z,2.52
2019-03-05T19:00:38.979Z,2.20
2019-03-05T19:03:11.629Z,2.52
2019-03-05T19:05:40.883Z,2.12
2019-03-05T19:08:09.963Z,2.00
2019-03-05T19:10:39.035Z,1.80
2019-03-05T19:13:08.435Z,1.65
2019-03-05T19:15:37.507Z,1.90
2019-03-05T19:18:06.771Z,1.98
2019-03-05T19:20:35.844Z,2.00
2019-03-05T19:23:04.928Z,1.90
2019-03-05T19:25:39.534Z,2.50
2019-03-05T19:28:11.353Z,1.92
2019-03-05T19:30:45.966Z,3.27
2019-03-05T19:33:15.360Z,2.65
2019-03-05T19:35:44.431Z,2.70
2019-03-05T19:38:13.508Z,2.70
2019-03-05T19:40:44.035Z,2.87
2019-03-05T19:43:13.114Z,2.62
2019-03-05T19:45:42.498Z,3.02
2019-03-05T19:48:11.616Z,3.47
2019-03-05T19:50:40.962Z,3.00
2019-03-05T19:53:10.069Z,3.10
2019-03-05T19:55:39.249Z,3.15
2019-03-05T19:58:09.167Z,3.15
2019-03-05T20:00:55.811Z,3.25
2019-03-05T20:03:24.902Z,3.55
2019-03-05T20:05:54.791Z,3.65
2019-03-05T20:08:24.208Z,4.22
2019-03-05T20:10:53.308Z,4.40
2019-03-05T20:13:22.457Z,4.53
2019-03-05T20:15:51.540Z,5.22
2019-03-05T20:18:20.648Z,5.37
2019-03-05T20:20:50.020Z,5.35
2019-03-05T20:23:19.169Z,5.85
2019-03-05T20:25:48.609Z,5.62
2019-03-05T20:28:20.946Z,6.35
2019-03-05T20:30:50.047Z,5.75
2019-03-05T20:33:19.142Z,6.30
2019-03-05T20:35:48.598Z,6.20
2019-03-05T20:38:17.723Z,6.92
2019-03-05T20:40:46.903Z,6.83
2019-03-05T20:43:16.064Z,7.12
2019-03-05T20:45:57.303Z,9.68
2019-03-05T20:48:26.864Z,8.50
2019-03-05T20:50:56.247Z,8.15
2019-03-05T20:53:25.418Z,9.65
2019-03-05T20:55:56.304Z,9.38
2019-03-05T20:58:26.556Z,9.90
2019-03-05T21:00:55.759Z,10.55
2019-03-05T21:03:24.864Z,9.93
2019-03-05T21:05:54.269Z,9.95
2019-03-05T21:08:23.392Z,11.22
2019-03-05T21:10:52.860Z,10.88
2019-03-05T21:13:23.601Z,10.35
2019-03-05T21:15:52.701Z,10.80
2019-03-05T21:18:23.436Z,10.72
2019-03-05T21:20:52.535Z,10.25
2019-03-05T21:23:21.913Z,12.47
2019-03-05T21:25:51.296Z,11.00
2019-03-05T21:28:20.573Z,11.80
2019-03-05T21:30:49.648Z,11.97
2019-03-05T21:33:18.838Z,11.83
2019-03-05T21:35:47.927Z,12.07
2019-03-05T21:38:17.289Z,10.70
2019-03-05T21:40:46.469Z,10.98
2019-03-05T21:43:15.573Z,11.57
2019-03-05T21:45:51.577Z,11.75
2019-03-05T21:48:20.744Z,12.18
2019-03-05T21:50:50.029Z,11.70
2019-03-05T21:53:19.110Z,12.73
2019-03-05T21:55:48.191Z,11.50
2019-03-05T21:58:17.274Z,12.53
2019-03-05T22:00:46.435Z,13.43
2019-03-05T22:03:15.788Z,12.15
2019-03-05T22:05:45.942Z,13.95
2019-03-05T22:08:15.032Z,13.38
2019-03-05T22:10:44.274Z,12.93
2019-03-05T22:13:13.367Z,12.33
2019-03-05T22:15:42.475Z,16.17
2019-03-05T22:18:11.839Z,15.50
2019-03-05T22:20:41.086Z,15.25
2019-03-05T22:23:10.250Z,15.05
2019-03-05T22:25:39.344Z,14.90
2019-03-05T22:28:08.418Z,16.07
2019-03-05T22:30:38.424Z,13.78
2019-03-05T22:33:07.770Z,13.32
2019-03-05T22:35:36.864Z,13.80
2019-03-05T22:38:06.110Z,13.18
2019-03-05T22:40:35.191Z,13.45
2019-03-05T22:43:04.279Z,12.93
2019-03-05T22:45:36.491Z,13.20
2019-03-05T22:48:05.590Z,13.25
2019-03-05T22:50:34.674Z,14.73
2019-03-05T22:53:04.020Z,15.23
2019-03-05T22:55:33.420Z,15.53
2019-03-05T22:58:02.494Z,14.15
2019-03-05T23:00:51.214Z,15.90
2019-03-05T23:03:24.258Z,14.53
2019-03-05T23:05:53.526Z,14.23
2019-03-05T23:08:22.774Z,13.45
2019-03-05T23:10:53.491Z,13.88
2019-03-05T23:13:22.740Z,13.50
2019-03-05T23:15:51.907Z,13.75
2019-03-05T23:18:21.603Z,13.65
2019-03-05T23:20:50.689Z,12.55
2019-03-05T23:23:20.818Z,13.58
2019-03-05T23:25:50.006Z,12.98
2019-03-05T23:28:19.347Z,13.13
2019-03-05T23:30:49.523Z,12.80
2019-03-05T23:33:19.076Z,14.20
2019-03-05T23:35:48.159Z,13.70
2019-03-05T23:38:17.254Z,14.20
2019-03-05T23:40:46.340Z,12.43
2019-03-05T23:43:15.439Z,13.55
2019-03-05T23:45:44.518Z,13.08
2019-03-05T23:48:13.622Z,13.50
2019-03-05T23:50:42.706Z,14.53
2019-03-05T23:53:11.791Z,14.53
2019-03-05T23:55:40.887Z,15.50
2019-03-05T23:58:10.002Z,13.30
